Airfield :
LOGIN :

Register | Disclaimer

   EN    FR    IT 

 










Legend :    VFR   Marginal VFR   IFR   Intensive IFR   Very Intensive IFR
Visi :
Ceiling :
>= 8 km
>= 3000ft
5 to 8 km
1000 to 3000 ft
1500m to 5 km
500 to 1000 ft
800 to 1500m
200 to 500 ft
< 800m
< 200 ft
Symbols :   Thunderstorms  Fog  Heavy snow  Heavy precipitations  Wind > 20 kt
SIGMETs :     Misc.  Thunderstorms  Icing  Turbulence  Mountain Waves  Volcanic Ashes







- Airport Elevation : 39 ft
- IATA code : ANR


EBAW - Anvers / Antwerpen Deurne

CURRENT METAR :
  • 211550Z 10006KT 070V150 CAVOK 24/04 Q1016 NOSIG

EXPIRED METARs :
  • 211520Z 11005KT 050V190 CAVOK 24/04 Q1016 NOSIG
  • 211450Z 05004KT 350V090 CAVOK 24/04 Q1017 NOSIG
  • 211420Z VRB04KT CAVOK 24/05 Q1017 NOSIG
  • 211350Z VRB05KT CAVOK 24/05 Q1017 NOSIG
  • 211320Z 08005KT 040V130 CAVOK 24/03 Q1018 NOSIG
  • 211250Z 12006KT 060V150 CAVOK 24/04 Q1018 NOSIG

TAF TAF EBAW
Valid from the 21 at 15:00 until the 22 at 00:00 UTC


211415Z 2115/2124 09004KT CAVOK
No reported NOTAMs for that airfield.



MET'MAP, your aeronautical weather chart ! - Copyright ORBIFLY December 2007 - Disclaimer

ORBIFLY MET'MAP TEAM :

Programming & Development : Alexandra Zaïnal
Concept & Development : Baudouin d'Aumeries
Co-Development & Prog : Marc-Olivier Méhu
Technical & hardware support : Manuel Goepfert

Contact : metmap@orbifly.com




SOURCES & CREDITS :

   NOAA